sensor_id;sensor_type;location;lat;lon;timestamp;P1;durP1;ratioP1;P2;durP2;ratioP2
26106;SDS011;13866;50.748;12.630;2023-03-16T00:01:41;6.30;;;5.83;;
26106;SDS011;13866;50.748;12.630;2023-03-16T00:04:07;6.13;;;5.93;;
26106;SDS011;13866;50.748;12.630;2023-03-16T00:06:32;7.10;;;6.70;;
26106;SDS011;13866;50.748;12.630;2023-03-16T00:09:00;6.97;;;6.35;;
26106;SDS011;13866;50.748;12.630;2023-03-16T00:11:26;11.05;;;9.00;;
26106;SDS011;13866;50.748;12.630;2023-03-16T00:13:52;7.90;;;7.20;;
26106;SDS011;13866;50.748;12.630;2023-03-16T00:16:18;6.73;;;6.07;;
26106;SDS011;13866;50.748;12.630;2023-03-16T00:18:43;6.63;;;6.30;;
26106;SDS011;13866;50.748;12.630;2023-03-16T00:21:09;8.53;;;6.43;;
26106;SDS011;13866;50.748;12.630;2023-03-16T00:23:38;8.20;;;7.50;;
26106;SDS011;13866;50.748;12.630;2023-03-16T00:26:05;7.30;;;6.90;;
26106;SDS011;13866;50.748;12.630;2023-03-16T00:28:32;6.90;;;6.45;;
26106;SDS011;13866;50.748;12.630;2023-03-16T00:31:06;7.22;;;6.88;;
26106;SDS011;13866;50.748;12.630;2023-03-16T00:33:35;6.22;;;5.82;;
26106;SDS011;13866;50.748;12.630;2023-03-16T00:36:02;6.20;;;6.00;;
26106;SDS011;13866;50.748;12.630;2023-03-16T00:38:30;6.10;;;5.80;;
26106;SDS011;13866;50.748;12.630;2023-03-16T00:41:01;6.25;;;5.75;;
26106;SDS011;13866;50.748;12.630;2023-03-16T00:43:28;6.45;;;6.13;;
26106;SDS011;13866;50.748;12.630;2023-03-16T00:45:59;6.93;;;6.22;;
26106;SDS011;13866;50.748;12.630;2023-03-16T00:48:30;7.10;;;6.30;;
26106;SDS011;13866;50.748;12.630;2023-03-16T00:51:03;5.75;;;5.47;;
26106;SDS011;13866;50.748;12.630;2023-03-16T00:53:33;6.15;;;5.88;;
26106;SDS011;13866;50.748;12.630;2023-03-16T00:56:00;6.50;;;6.20;;
26106;SDS011;13866;50.748;12.630;2023-03-16T00:58:33;6.32;;;5.93;;
26106;SDS011;13866;50.748;12.630;2023-03-16T01:01:04;8.52;;;6.25;;
26106;SDS011;13866;50.748;12.630;2023-03-16T01:03:31;6.57;;;6.13;;
26106;SDS011;13866;50.748;12.630;2023-03-16T01:06:02;21.05;;;7.20;;
26106;SDS011;13866;50.748;12.630;2023-03-16T01:08:30;7.65;;;7.05;;
26106;SDS011;13866;50.748;12.630;2023-03-16T01:10:56;7.40;;;6.90;;
26106;SDS011;13866;50.748;12.630;2023-03-16T01:13:29;7.45;;;7.05;;
26106;SDS011;13866;50.748;12.630;2023-03-16T01:15:58;6.10;;;5.80;;
26106;SDS011;13866;50.748;12.630;2023-03-16T01:18:25;8.60;;;6.65;;
26106;SDS011;13866;50.748;12.630;2023-03-16T01:20:51;14.85;;;7.85;;
26106;SDS011;13866;50.748;12.630;2023-03-16T01:23:17;9.35;;;6.72;;
26106;SDS011;13866;50.748;12.630;2023-03-16T01:25:43;7.13;;;6.45;;
26106;SDS011;13866;50.748;12.630;2023-03-16T01:28:16;7.13;;;6.70;;
26106;SDS011;13866;50.748;12.630;2023-03-16T01:30:48;6.95;;;6.22;;
26106;SDS011;13866;50.748;12.630;2023-03-16T01:33:17;7.28;;;6.78;;
26106;SDS011;13866;50.748;12.630;2023-03-16T01:35:50;6.40;;;6.15;;
26106;SDS011;13866;50.748;12.630;2023-03-16T01:38:20;6.82;;;6.30;;
26106;SDS011;13866;50.748;12.630;2023-03-16T01:40:46;11.47;;;6.97;;
26106;SDS011;13866;50.748;12.630;2023-03-16T01:43:17;7.57;;;6.53;;
26106;SDS011;13866;50.748;12.630;2023-03-16T01:51:20;7.57;;;6.95;;
26106;SDS011;13866;50.748;12.630;2023-03-16T01:53:47;5.93;;;5.65;;
26106;SDS011;13866;50.748;12.630;2023-03-16T01:56:17;6.70;;;6.28;;
26106;SDS011;13866;50.748;12.630;2023-03-16T01:58:48;7.20;;;6.82;;
26106;SDS011;13866;50.748;12.630;2023-03-16T02:01:16;5.88;;;5.47;;
26106;SDS011;13866;50.748;12.630;2023-03-16T02:03:42;6.70;;;6.20;;
26106;SDS011;13866;50.748;12.630;2023-03-16T02:06:13;6.57;;;5.85;;
26106;SDS011;13866;50.748;12.630;2023-03-16T02:08:42;4.95;;;4.75;;
26106;SDS011;13866;50.748;12.630;2023-03-16T02:11:09;6.82;;;6.20;;
26106;SDS011;13866;50.748;12.630;2023-03-16T02:13:34;6.80;;;6.10;;
26106;SDS011;13866;50.748;12.630;2023-03-16T02:16:01;6.20;;;5.70;;
26106;SDS011;13866;50.748;12.630;2023-03-16T02:18:29;5.30;;;5.20;;
26106;SDS011;13866;50.748;12.630;2023-03-16T02:23:44;6.43;;;6.13;;
26106;SDS011;13866;50.748;12.630;2023-03-16T02:26:16;5.50;;;5.18;;
26106;SDS011;13866;50.748;12.630;2023-03-16T02:29:22;6.50;;;5.97;;
26106;SDS011;13866;50.748;12.630;2023-03-16T02:32:03;5.55;;;5.45;;
26106;SDS011;13866;50.748;12.630;2023-03-16T02:34:29;6.85;;;6.20;;
26106;SDS011;13866;50.748;12.630;2023-03-16T02:36:55;6.00;;;5.50;;
26106;SDS011;13866;50.748;12.630;2023-03-16T02:39:22;5.85;;;5.45;;
26106;SDS011;13866;50.748;12.630;2023-03-16T02:41:48;6.22;;;5.80;;
26106;SDS011;13866;50.748;12.630;2023-03-16T02:44:16;10.20;;;6.93;;
26106;SDS011;13866;50.748;12.630;2023-03-16T02:46:48;9.00;;;5.88;;
26106;SDS011;13866;50.748;12.630;2023-03-16T02:49:17;7.28;;;6.57;;
26106;SDS011;13866;50.748;12.630;2023-03-16T02:51:49;7.85;;;5.75;;
26106;SDS011;13866;50.748;12.630;2023-03-16T02:54:14;7.03;;;5.50;;
26106;SDS011;13866;50.748;12.630;2023-03-16T02:56:40;5.17;;;4.97;;
26106;SDS011;13866;50.748;12.630;2023-03-16T02:59:06;6.60;;;6.13;;
26106;SDS011;13866;50.748;12.630;2023-03-16T03:01:31;6.87;;;6.00;;
26106;SDS011;13866;50.748;12.630;2023-03-16T03:03:58;6.40;;;5.90;;
26106;SDS011;13866;50.748;12.630;2023-03-16T03:06:25;5.20;;;5.07;;
26106;SDS011;13866;50.748;12.630;2023-03-16T03:08:50;5.10;;;4.97;;
26106;SDS011;13866;50.748;12.630;2023-03-16T03:11:16;5.93;;;5.20;;
26106;SDS011;13866;50.748;12.630;2023-03-16T03:13:43;5.55;;;5.15;;
26106;SDS011;13866;50.748;12.630;2023-03-16T03:16:09;5.63;;;5.25;;
26106;SDS011;13866;50.748;12.630;2023-03-16T03:18:35;5.20;;;4.87;;
26106;SDS011;13866;50.748;12.630;2023-03-16T03:21:00;4.60;;;4.50;;
26106;SDS011;13866;50.748;12.630;2023-03-16T03:23:26;5.33;;;5.23;;
26106;SDS011;13866;50.748;12.630;2023-03-16T03:25:51;6.47;;;5.97;;
26106;SDS011;13866;50.748;12.630;2023-03-16T03:28:21;5.18;;;4.90;;
26106;SDS011;13866;50.748;12.630;2023-03-16T03:30:47;4.97;;;4.67;;
26106;SDS011;13866;50.748;12.630;2023-03-16T03:33:12;5.70;;;5.37;;
26106;SDS011;13866;50.748;12.630;2023-03-16T03:35:38;5.37;;;5.27;;
26106;SDS011;13866;50.748;12.630;2023-03-16T03:38:03;6.53;;;5.20;;
26106;SDS011;13866;50.748;12.630;2023-03-16T03:40:29;5.70;;;5.37;;
26106;SDS011;13866;50.748;12.630;2023-03-16T03:42:54;5.53;;;5.10;;
26106;SDS011;13866;50.748;12.630;2023-03-16T03:45:20;5.13;;;4.83;;
26106;SDS011;13866;50.748;12.630;2023-03-16T03:47:45;5.47;;;5.13;;
26106;SDS011;13866;50.748;12.630;2023-03-16T03:50:11;6.83;;;5.10;;
26106;SDS011;13866;50.748;12.630;2023-03-16T03:52:37;5.75;;;5.50;;
26106;SDS011;13866;50.748;12.630;2023-03-16T03:55:03;5.60;;;5.07;;
26106;SDS011;13866;50.748;12.630;2023-03-16T03:57:29;6.05;;;5.85;;
26106;SDS011;13866;50.748;12.630;2023-03-16T03:59:55;5.47;;;5.13;;
26106;SDS011;13866;50.748;12.630;2023-03-16T04:02:20;7.70;;;7.00;;
26106;SDS011;13866;50.748;12.630;2023-03-16T04:04:47;5.55;;;5.22;;
26106;SDS011;13866;50.748;12.630;2023-03-16T04:07:12;7.20;;;5.20;;
26106;SDS011;13866;50.748;12.630;2023-03-16T04:09:38;4.90;;;4.80;;
26106;SDS011;13866;50.748;12.630;2023-03-16T04:12:04;5.23;;;4.80;;
26106;SDS011;13866;50.748;12.630;2023-03-16T04:14:30;5.18;;;4.38;;
26106;SDS011;13866;50.748;12.630;2023-03-16T04:16:55;4.20;;;4.10;;
26106;SDS011;13866;50.748;12.630;2023-03-16T04:19:22;4.70;;;4.60;;
26106;SDS011;13866;50.748;12.630;2023-03-16T04:21:48;4.30;;;4.20;;
26106;SDS011;13866;50.748;12.630;2023-03-16T04:24:14;4.60;;;4.32;;
26106;SDS011;13866;50.748;12.630;2023-03-16T04:26:41;5.10;;;4.70;;
26106;SDS011;13866;50.748;12.630;2023-03-16T04:29:09;5.03;;;4.57;;
26106;SDS011;13866;50.748;12.630;2023-03-16T04:31:35;5.90;;;5.50;;
26106;SDS011;13866;50.748;12.630;2023-03-16T04:34:00;5.10;;;4.70;;
26106;SDS011;13866;50.748;12.630;2023-03-16T04:36:26;4.53;;;4.47;;
26106;SDS011;13866;50.748;12.630;2023-03-16T04:38:52;4.57;;;4.27;;
26106;SDS011;13866;50.748;12.630;2023-03-16T04:41:17;4.10;;;3.90;;
26106;SDS011;13866;50.748;12.630;2023-03-16T04:43:43;4.13;;;4.03;;
26106;SDS011;13866;50.748;12.630;2023-03-16T04:46:09;3.80;;;3.70;;
26106;SDS011;13866;50.748;12.630;2023-03-16T04:48:35;10.05;;;4.07;;
26106;SDS011;13866;50.748;12.630;2023-03-16T04:51:01;4.20;;;3.80;;
26106;SDS011;13866;50.748;12.630;2023-03-16T04:53:28;6.38;;;4.38;;
26106;SDS011;13866;50.748;12.630;2023-03-16T04:55:59;7.43;;;4.80;;
26106;SDS011;13866;50.748;12.630;2023-03-16T04:58:25;5.80;;;5.35;;
26106;SDS011;13866;50.748;12.630;2023-03-16T05:00:51;4.45;;;4.35;;
26106;SDS011;13866;50.748;12.630;2023-03-16T05:03:18;4.93;;;4.53;;
26106;SDS011;13866;50.748;12.630;2023-03-16T05:05:45;4.87;;;4.20;;
26106;SDS011;13866;50.748;12.630;2023-03-16T05:08:10;10.48;;;4.15;;
26106;SDS011;13866;50.748;12.630;2023-03-16T05:10:36;4.43;;;4.13;;
26106;SDS011;13866;50.748;12.630;2023-03-16T05:13:02;10.35;;;4.43;;
26106;SDS011;13866;50.748;12.630;2023-03-16T05:15:28;4.97;;;4.70;;
26106;SDS011;13866;50.748;12.630;2023-03-16T05:17:54;8.90;;;4.07;;
26106;SDS011;13866;50.748;12.630;2023-03-16T05:20:20;5.23;;;4.03;;
26106;SDS011;13866;50.748;12.630;2023-03-16T05:22:46;4.63;;;4.53;;
26106;SDS011;13866;50.748;12.630;2023-03-16T05:25:12;4.63;;;4.30;;
26106;SDS011;13866;50.748;12.630;2023-03-16T05:27:45;3.97;;;3.78;;
26106;SDS011;13866;50.748;12.630;2023-03-16T05:30:13;4.65;;;4.40;;
26106;SDS011;13866;50.748;12.630;2023-03-16T05:32:43;5.18;;;4.78;;
26106;SDS011;13866;50.748;12.630;2023-03-16T05:35:09;4.85;;;4.65;;
26106;SDS011;13866;50.748;12.630;2023-03-16T05:37:37;4.70;;;4.70;;
26106;SDS011;13866;50.748;12.630;2023-03-16T05:40:04;4.68;;;4.25;;
26106;SDS011;13866;50.748;12.630;2023-03-16T05:42:38;3.97;;;3.97;;
26106;SDS011;13866;50.748;12.630;2023-03-16T05:45:03;5.80;;;5.60;;
26106;SDS011;13866;50.748;12.630;2023-03-16T05:47:30;4.18;;;3.95;;
26106;SDS011;13866;50.748;12.630;2023-03-16T05:49:55;4.00;;;4.00;;
26106;SDS011;13866;50.748;12.630;2023-03-16T05:52:21;17.60;;;4.30;;
26106;SDS011;13866;50.748;12.630;2023-03-16T05:54:49;5.38;;;4.75;;
26106;SDS011;13866;50.748;12.630;2023-03-16T05:57:14;4.13;;;3.93;;
26106;SDS011;13866;50.748;12.630;2023-03-16T05:59:40;5.50;;;4.17;;
26106;SDS011;13866;50.748;12.630;2023-03-16T06:02:05;5.60;;;5.33;;
26106;SDS011;13866;50.748;12.630;2023-03-16T06:04:34;6.43;;;6.03;;
26106;SDS011;13866;50.748;12.630;2023-03-16T06:07:00;11.40;;;9.67;;
26106;SDS011;13866;50.748;12.630;2023-03-16T06:09:26;9.07;;;7.27;;
26106;SDS011;13866;50.748;12.630;2023-03-16T06:11:51;8.20;;;7.40;;
26106;SDS011;13866;50.748;12.630;2023-03-16T06:14:17;7.07;;;6.37;;
26106;SDS011;13866;50.748;12.630;2023-03-16T06:16:42;8.47;;;6.17;;
26106;SDS011;13866;50.748;12.630;2023-03-16T06:19:08;8.03;;;7.07;;
26106;SDS011;13866;50.748;12.630;2023-03-16T06:21:33;8.37;;;7.43;;
26106;SDS011;13866;50.748;12.630;2023-03-16T06:23:59;24.70;;;11.73;;
26106;SDS011;13866;50.748;12.630;2023-03-16T06:26:25;11.38;;;8.00;;
26106;SDS011;13866;50.748;12.630;2023-03-16T06:28:51;7.47;;;6.80;;
26106;SDS011;13866;50.748;12.630;2023-03-16T06:31:16;6.60;;;6.20;;
26106;SDS011;13866;50.748;12.630;2023-03-16T06:33:42;5.60;;;5.30;;
26106;SDS011;13866;50.748;12.630;2023-03-16T06:36:07;9.27;;;6.37;;
26106;SDS011;13866;50.748;12.630;2023-03-16T06:38:33;7.00;;;6.33;;
26106;SDS011;13866;50.748;12.630;2023-03-16T06:41:04;5.70;;;4.47;;
26106;SDS011;13866;50.748;12.630;2023-03-16T06:43:29;3.30;;;3.20;;
26106;SDS011;13866;50.748;12.630;2023-03-16T06:45:55;4.70;;;4.60;;
26106;SDS011;13866;50.748;12.630;2023-03-16T06:48:21;4.00;;;3.90;;
26106;SDS011;13866;50.748;12.630;2023-03-16T06:50:46;8.90;;;8.10;;
26106;SDS011;13866;50.748;12.630;2023-03-16T06:53:12;5.13;;;4.20;;
26106;SDS011;13866;50.748;12.630;2023-03-16T06:55:37;4.13;;;4.03;;
26106;SDS011;13866;50.748;12.630;2023-03-16T06:58:03;4.67;;;4.30;;
26106;SDS011;13866;50.748;12.630;2023-03-16T07:00:28;11.00;;;9.67;;
26106;SDS011;13866;50.748;12.630;2023-03-16T07:02:55;12.60;;;11.33;;
26106;SDS011;13866;50.748;12.630;2023-03-16T07:05:21;11.43;;;9.20;;
26106;SDS011;13866;50.748;12.630;2023-03-16T07:07:46;9.10;;;8.17;;
26106;SDS011;13866;50.748;12.630;2023-03-16T07:10:13;8.47;;;7.63;;
26106;SDS011;13866;50.748;12.630;2023-03-16T07:12:41;13.17;;;7.00;;
26106;SDS011;13866;50.748;12.630;2023-03-16T07:15:07;6.00;;;5.27;;
26106;SDS011;13866;50.748;12.630;2023-03-16T07:17:33;4.60;;;4.20;;
26106;SDS011;13866;50.748;12.630;2023-03-16T07:19:59;6.00;;;3.27;;
26106;SDS011;13866;50.748;12.630;2023-03-16T07:22:24;14.73;;;4.17;;
26106;SDS011;13866;50.748;12.630;2023-03-16T07:24:50;4.97;;;3.13;;
26106;SDS011;13866;50.748;12.630;2023-03-16T07:27:21;4.30;;;3.50;;
26106;SDS011;13866;50.748;12.630;2023-03-16T07:29:47;3.20;;;3.13;;
26106;SDS011;13866;50.748;12.630;2023-03-16T07:32:13;7.27;;;3.33;;
26106;SDS011;13866;50.748;12.630;2023-03-16T07:34:39;2.87;;;2.80;;
26106;SDS011;13866;50.748;12.630;2023-03-16T07:37:05;4.47;;;4.20;;
26106;SDS011;13866;50.748;12.630;2023-03-16T07:39:32;2.70;;;2.50;;
26106;SDS011;13866;50.748;12.630;2023-03-16T07:41:58;4.27;;;3.73;;
26106;SDS011;13866;50.748;12.630;2023-03-16T07:44:25;2.93;;;2.83;;
26106;SDS011;13866;50.748;12.630;2023-03-16T07:46:51;4.67;;;3.43;;
26106;SDS011;13866;50.748;12.630;2023-03-16T07:49:16;4.37;;;3.70;;
26106;SDS011;13866;50.748;12.630;2023-03-16T07:51:42;2.53;;;2.43;;
26106;SDS011;13866;50.748;12.630;2023-03-16T07:54:07;2.90;;;2.63;;
26106;SDS011;13866;50.748;12.630;2023-03-16T07:56:33;2.80;;;2.70;;
26106;SDS011;13866;50.748;12.630;2023-03-16T07:58:58;1.80;;;1.80;;
26106;SDS011;13866;50.748;12.630;2023-03-16T08:01:23;2.87;;;2.17;;
26106;SDS011;13866;50.748;12.630;2023-03-16T08:03:49;2.47;;;2.30;;
26106;SDS011;13866;50.748;12.630;2023-03-16T08:06:14;2.50;;;2.40;;
26106;SDS011;13866;50.748;12.630;2023-03-16T08:08:40;3.93;;;2.57;;
26106;SDS011;13866;50.748;12.630;2023-03-16T08:11:06;1.83;;;1.83;;
26106;SDS011;13866;50.748;12.630;2023-03-16T08:13:32;1.57;;;1.57;;
26106;SDS011;13866;50.748;12.630;2023-03-16T08:15:59;2.37;;;2.23;;
26106;SDS011;13866;50.748;12.630;2023-03-16T08:18:26;3.83;;;2.33;;
26106;SDS011;13866;50.748;12.630;2023-03-16T08:20:53;2.27;;;2.07;;
26106;SDS011;13866;50.748;12.630;2023-03-16T08:23:19;2.50;;;2.30;;
26106;SDS011;13866;50.748;12.630;2023-03-16T08:25:46;2.33;;;2.23;;
26106;SDS011;13866;50.748;12.630;2023-03-16T08:28:15;2.47;;;2.27;;
26106;SDS011;13866;50.748;12.630;2023-03-16T08:30:45;2.07;;;1.90;;
26106;SDS011;13866;50.748;12.630;2023-03-16T08:33:14;2.47;;;2.27;;
26106;SDS011;13866;50.748;12.630;2023-03-16T08:35:41;2.33;;;2.23;;
26106;SDS011;13866;50.748;12.630;2023-03-16T08:38:11;3.03;;;1.73;;
26106;SDS011;13866;50.748;12.630;2023-03-16T08:40:37;2.20;;;1.80;;
26106;SDS011;13866;50.748;12.630;2023-03-16T08:43:06;2.33;;;2.33;;
26106;SDS011;13866;50.748;12.630;2023-03-16T08:45:32;5.20;;;2.40;;
26106;SDS011;13866;50.748;12.630;2023-03-16T08:47:58;2.20;;;2.07;;
26106;SDS011;13866;50.748;12.630;2023-03-16T08:50:24;1.97;;;1.97;;
26106;SDS011;13866;50.748;12.630;2023-03-16T08:52:50;1.90;;;1.63;;
26106;SDS011;13866;50.748;12.630;2023-03-16T08:55:15;1.97;;;1.87;;
26106;SDS011;13866;50.748;12.630;2023-03-16T08:57:41;9.93;;;2.07;;
26106;SDS011;13866;50.748;12.630;2023-03-16T09:00:09;2.40;;;2.17;;
26106;SDS011;13866;50.748;12.630;2023-03-16T09:02:38;2.97;;;2.73;;
26106;SDS011;13866;50.748;12.630;2023-03-16T09:05:04;2.50;;;2.40;;
26106;SDS011;13866;50.748;12.630;2023-03-16T09:07:32;1.90;;;1.90;;
26106;SDS011;13866;50.748;12.630;2023-03-16T09:09:59;3.43;;;1.83;;
26106;SDS011;13866;50.748;12.630;2023-03-16T09:12:25;2.37;;;2.27;;
26106;SDS011;13866;50.748;12.630;2023-03-16T09:14:50;7.17;;;2.43;;
26106;SDS011;13866;50.748;12.630;2023-03-16T09:17:16;2.20;;;2.10;;
26106;SDS011;13866;50.748;12.630;2023-03-16T09:19:41;1.90;;;1.90;;
26106;SDS011;13866;50.748;12.630;2023-03-16T09:22:07;5.23;;;1.77;;
26106;SDS011;13866;50.748;12.630;2023-03-16T09:24:32;2.00;;;1.63;;
26106;SDS011;13866;50.748;12.630;2023-03-16T09:26:57;3.70;;;2.93;;
26106;SDS011;13866;50.748;12.630;2023-03-16T09:29:23;1.80;;;1.80;;
26106;SDS011;13866;50.748;12.630;2023-03-16T09:31:49;1.57;;;1.57;;
26106;SDS011;13866;50.748;12.630;2023-03-16T09:34:15;9.00;;;2.70;;
26106;SDS011;13866;50.748;12.630;2023-03-16T09:36:40;2.30;;;2.10;;
26106;SDS011;13866;50.748;12.630;2023-03-16T09:39:06;2.50;;;2.30;;
26106;SDS011;13866;50.748;12.630;2023-03-16T09:41:38;2.30;;;2.20;;
26106;SDS011;13866;50.748;12.630;2023-03-16T09:44:24;4.20;;;2.43;;
26106;SDS011;13866;50.748;12.630;2023-03-16T09:46:58;2.73;;;2.23;;
26106;SDS011;13866;50.748;12.630;2023-03-16T09:49:26;4.40;;;2.43;;
26106;SDS011;13866;50.748;12.630;2023-03-16T09:55:11;2.83;;;2.73;;
26106;SDS011;13866;50.748;12.630;2023-03-16T09:57:55;3.43;;;2.60;;
26106;SDS011;13866;50.748;12.630;2023-03-16T10:00:29;3.43;;;3.13;;
26106;SDS011;13866;50.748;12.630;2023-03-16T10:05:43;3.03;;;2.80;;
26106;SDS011;13866;50.748;12.630;2023-03-16T10:08:13;2.83;;;1.87;;
26106;SDS011;13866;50.748;12.630;2023-03-16T10:13:43;4.50;;;2.20;;
26106;SDS011;13866;50.748;12.630;2023-03-16T10:18:49;3.60;;;2.20;;
26106;SDS011;13866;50.748;12.630;2023-03-16T10:21:22;2.03;;;1.97;;
26106;SDS011;13866;50.748;12.630;2023-03-16T10:23:48;2.80;;;2.10;;
26106;SDS011;13866;50.748;12.630;2023-03-16T10:26:20;2.40;;;2.30;;
26106;SDS011;13866;50.748;12.630;2023-03-16T10:28:49;2.23;;;2.13;;
26106;SDS011;13866;50.748;12.630;2023-03-16T10:31:17;4.00;;;2.23;;
26106;SDS011;13866;50.748;12.630;2023-03-16T10:33:46;1.57;;;1.47;;
26106;SDS011;13866;50.748;12.630;2023-03-16T10:36:17;1.67;;;1.67;;
26106;SDS011;13866;50.748;12.630;2023-03-16T10:38:52;4.57;;;1.83;;
26106;SDS011;13866;50.748;12.630;2023-03-16T10:41:29;2.13;;;2.03;;
26106;SDS011;13866;50.748;12.630;2023-03-16T10:46:35;3.93;;;2.97;;
26106;SDS011;13866;50.748;12.630;2023-03-16T10:49:03;4.70;;;2.10;;
26106;SDS011;13866;50.748;12.630;2023-03-16T10:51:30;4.00;;;2.43;;
26106;SDS011;13866;50.748;12.630;2023-03-16T10:54:15;2.60;;;2.13;;
26106;SDS011;13866;50.748;12.630;2023-03-16T10:56:46;2.20;;;2.00;;
26106;SDS011;13866;50.748;12.630;2023-03-16T10:59:33;2.30;;;2.10;;
26106;SDS011;13866;50.748;12.630;2023-03-16T11:02:01;4.20;;;2.47;;
26106;SDS011;13866;50.748;12.630;2023-03-16T11:04:40;3.30;;;3.00;;
26106;SDS011;13866;50.748;12.630;2023-03-16T11:07:06;2.80;;;2.70;;
26106;SDS011;13866;50.748;12.630;2023-03-16T11:09:38;6.07;;;3.60;;
26106;SDS011;13866;50.748;12.630;2023-03-16T11:12:11;5.20;;;3.30;;
26106;SDS011;13866;50.748;12.630;2023-03-16T11:14:41;4.73;;;3.57;;
26106;SDS011;13866;50.748;12.630;2023-03-16T11:17:09;2.73;;;2.30;;
26106;SDS011;13866;50.748;12.630;2023-03-16T11:19:51;4.43;;;2.37;;
26106;SDS011;13866;50.748;12.630;2023-03-16T11:22:22;6.37;;;2.60;;
26106;SDS011;13866;50.748;12.630;2023-03-16T11:27:25;2.27;;;1.90;;
26106;SDS011;13866;50.748;12.630;2023-03-16T11:32:50;3.43;;;2.30;;
26106;SDS011;13866;50.748;12.630;2023-03-16T11:35:38;4.37;;;2.10;;
26106;SDS011;13866;50.748;12.630;2023-03-16T11:38:26;1.77;;;1.67;;
26106;SDS011;13866;50.748;12.630;2023-03-16T11:41:07;2.87;;;1.57;;
26106;SDS011;13866;50.748;12.630;2023-03-16T11:43:48;1.70;;;1.60;;
26106;SDS011;13866;50.748;12.630;2023-03-16T11:46:34;5.40;;;1.70;;
26106;SDS011;13866;50.748;12.630;2023-03-16T11:49:41;1.30;;;1.30;;
26106;SDS011;13866;50.748;12.630;2023-03-16T11:58:27;2.20;;;1.67;;
26106;SDS011;13866;50.748;12.630;2023-03-16T12:03:40;3.63;;;2.20;;
26106;SDS011;13866;50.748;12.630;2023-03-16T12:06:20;1.20;;;1.20;;
26106;SDS011;13866;50.748;12.630;2023-03-16T12:14:42;1.13;;;1.10;;
26106;SDS011;13866;50.748;12.630;2023-03-16T12:17:15;1.57;;;1.33;;
26106;SDS011;13866;50.748;12.630;2023-03-16T12:20:15;1.40;;;1.20;;
26106;SDS011;13866;50.748;12.630;2023-03-16T12:22:48;1.47;;;1.33;;
26106;SDS011;13866;50.748;12.630;2023-03-16T12:25:33;1.87;;;1.50;;
26106;SDS011;13866;50.748;12.630;2023-03-16T12:28:04;2.40;;;2.30;;
26106;SDS011;13866;50.748;12.630;2023-03-16T12:30:37;2.03;;;1.50;;
26106;SDS011;13866;50.748;12.630;2023-03-16T12:35:45;1.27;;;1.27;;
26106;SDS011;13866;50.748;12.630;2023-03-16T12:38:21;1.33;;;1.33;;
26106;SDS011;13866;50.748;12.630;2023-03-16T12:43:40;1.60;;;1.50;;
26106;SDS011;13866;50.748;12.630;2023-03-16T12:46:38;1.57;;;1.47;;
26106;SDS011;13866;50.748;12.630;2023-03-16T12:49:06;4.50;;;1.70;;
26106;SDS011;13866;50.748;12.630;2023-03-16T12:51:35;2.07;;;1.70;;
26106;SDS011;13866;50.748;12.630;2023-03-16T12:54:02;1.30;;;1.30;;
26106;SDS011;13866;50.748;12.630;2023-03-16T12:58:58;2.20;;;2.10;;
26106;SDS011;13866;50.748;12.630;2023-03-16T13:01:41;1.63;;;1.33;;
26106;SDS011;13866;50.748;12.630;2023-03-16T13:04:09;2.20;;;2.10;;
26106;SDS011;13866;50.748;12.630;2023-03-16T13:06:40;1.60;;;1.60;;
26106;SDS011;13866;50.748;12.630;2023-03-16T13:09:09;1.87;;;1.87;;
26106;SDS011;13866;50.748;12.630;2023-03-16T13:11:44;1.30;;;1.30;;
26106;SDS011;13866;50.748;12.630;2023-03-16T13:14:32;2.27;;;2.10;;
26106;SDS011;13866;50.748;12.630;2023-03-16T13:17:05;1.30;;;1.20;;
26106;SDS011;13866;50.748;12.630;2023-03-16T13:19:39;1.63;;;1.63;;
26106;SDS011;13866;50.748;12.630;2023-03-16T13:22:25;2.07;;;2.00;;
26106;SDS011;13866;50.748;12.630;2023-03-16T13:25:13;1.90;;;1.80;;
26106;SDS011;13866;50.748;12.630;2023-03-16T13:27:47;2.13;;;2.03;;
26106;SDS011;13866;50.748;12.630;2023-03-16T13:30:22;2.50;;;2.17;;
26106;SDS011;13866;50.748;12.630;2023-03-16T13:32:55;1.57;;;1.43;;
26106;SDS011;13866;50.748;12.630;2023-03-16T13:35:28;1.90;;;1.80;;
26106;SDS011;13866;50.748;12.630;2023-03-16T13:38:00;1.77;;;1.67;;
26106;SDS011;13866;50.748;12.630;2023-03-16T13:40:29;4.37;;;2.40;;
26106;SDS011;13866;50.748;12.630;2023-03-16T13:42:56;2.80;;;1.90;;
26106;SDS011;13866;50.748;12.630;2023-03-16T13:45:32;4.33;;;2.10;;
26106;SDS011;13866;50.748;12.630;2023-03-16T13:48:01;2.23;;;2.13;;
26106;SDS011;13866;50.748;12.630;2023-03-16T13:50:30;2.00;;;1.90;;
26106;SDS011;13866;50.748;12.630;2023-03-16T13:52:57;2.10;;;1.90;;
26106;SDS011;13866;50.748;12.630;2023-03-16T13:55:26;1.77;;;1.67;;
26106;SDS011;13866;50.748;12.630;2023-03-16T13:57:55;2.13;;;2.03;;
26106;SDS011;13866;50.748;12.630;2023-03-16T14:00:23;2.23;;;2.13;;
26106;SDS011;13866;50.748;12.630;2023-03-16T14:02:52;2.73;;;2.50;;
26106;SDS011;13866;50.748;12.630;2023-03-16T14:05:27;2.73;;;2.60;;
26106;SDS011;13866;50.748;12.630;2023-03-16T14:07:57;2.17;;;1.97;;
26106;SDS011;13866;50.748;12.630;2023-03-16T14:10:26;2.00;;;1.90;;
26106;SDS011;13866;50.748;12.630;2023-03-16T14:12:56;2.37;;;2.20;;
26106;SDS011;13866;50.748;12.630;2023-03-16T14:15:30;3.03;;;2.50;;
26106;SDS011;13866;50.748;12.630;2023-03-16T14:18:12;2.97;;;2.87;;
26106;SDS011;13866;50.748;12.630;2023-03-16T14:20:45;1.70;;;1.60;;
26106;SDS011;13866;50.748;12.630;2023-03-16T14:23:16;2.27;;;2.20;;
26106;SDS011;13866;50.748;12.630;2023-03-16T14:25:43;2.10;;;2.10;;
26106;SDS011;13866;50.748;12.630;2023-03-16T14:28:12;4.87;;;2.47;;
26106;SDS011;13866;50.748;12.630;2023-03-16T14:30:48;3.50;;;2.50;;
26106;SDS011;13866;50.748;12.630;2023-03-16T14:33:48;2.00;;;1.63;;
26106;SDS011;13866;50.748;12.630;2023-03-16T14:36:11;2.43;;;2.30;;
26106;SDS011;13866;50.748;12.630;2023-03-16T14:38:38;1.83;;;1.73;;
26106;SDS011;13866;50.748;12.630;2023-03-16T14:41:11;2.30;;;2.30;;
26106;SDS011;13866;50.748;12.630;2023-03-16T14:43:56;1.80;;;1.43;;
26106;SDS011;13866;50.748;12.630;2023-03-16T14:46:27;2.90;;;2.00;;
26106;SDS011;13866;50.748;12.630;2023-03-16T14:51:39;1.83;;;1.73;;
26106;SDS011;13866;50.748;12.630;2023-03-16T14:54:12;2.13;;;1.83;;
26106;SDS011;13866;50.748;12.630;2023-03-16T14:56:40;3.70;;;1.93;;
26106;SDS011;13866;50.748;12.630;2023-03-16T14:59:07;6.80;;;2.07;;
26106;SDS011;13866;50.748;12.630;2023-03-16T15:01:33;7.03;;;2.00;;
26106;SDS011;13866;50.748;12.630;2023-03-16T15:03:58;2.00;;;1.77;;
26106;SDS011;13866;50.748;12.630;2023-03-16T15:06:24;2.00;;;1.50;;
26106;SDS011;13866;50.748;12.630;2023-03-16T15:08:51;1.90;;;1.80;;
26106;SDS011;13866;50.748;12.630;2023-03-16T15:11:18;2.53;;;2.43;;
26106;SDS011;13866;50.748;12.630;2023-03-16T15:13:46;2.63;;;2.53;;
26106;SDS011;13866;50.748;12.630;2023-03-16T15:16:12;2.20;;;2.10;;
26106;SDS011;13866;50.748;12.630;2023-03-16T15:18:38;4.53;;;1.80;;
26106;SDS011;13866;50.748;12.630;2023-03-16T15:21:14;2.53;;;1.80;;
26106;SDS011;13866;50.748;12.630;2023-03-16T15:23:45;2.40;;;2.30;;
26106;SDS011;13866;50.748;12.630;2023-03-16T15:26:15;2.30;;;2.23;;
26106;SDS011;13866;50.748;12.630;2023-03-16T15:28:44;8.30;;;2.13;;
26106;SDS011;13866;50.748;12.630;2023-03-16T15:31:11;4.50;;;1.80;;
26106;SDS011;13866;50.748;12.630;2023-03-16T15:33:38;2.03;;;1.50;;
26106;SDS011;13866;50.748;12.630;2023-03-16T15:36:14;2.27;;;2.07;;
26106;SDS011;13866;50.748;12.630;2023-03-16T15:38:45;1.40;;;1.40;;